sensor_id;sensor_type;location;lat;lon;timestamp;temperature;humidity
68922;DHT22;55959;51.244;5.724;2023-11-22T00:01:05;9.90;72.40
68922;DHT22;55959;51.244;5.724;2023-11-22T00:03:32;9.80;71.60
68922;DHT22;55959;51.244;5.724;2023-11-22T00:05:57;9.80;71.70
68922;DHT22;55959;51.244;5.724;2023-11-22T00:08:23;9.80;71.80
68922;DHT22;55959;51.244;5.724;2023-11-22T00:10:49;9.80;71.90
68922;DHT22;55959;51.244;5.724;2023-11-22T00:13:15;9.80;71.90
68922;DHT22;55959;51.244;5.724;2023-11-22T00:15:41;9.70;71.90
68922;DHT22;55959;51.244;5.724;2023-11-22T00:18:06;9.70;71.90
68922;DHT22;55959;51.244;5.724;2023-11-22T00:20:32;9.70;72.00
68922;DHT22;55959;51.244;5.724;2023-11-22T00:22:59;9.70;72.00
68922;DHT22;55959;51.244;5.724;2023-11-22T00:25:25;9.70;72.00
68922;DHT22;55959;51.244;5.724;2023-11-22T00:27:51;9.60;71.80
68922;DHT22;55959;51.244;5.724;2023-11-22T00:30:17;9.60;71.90
68922;DHT22;55959;51.244;5.724;2023-11-22T00:32:42;9.60;71.80
68922;DHT22;55959;51.244;5.724;2023-11-22T00:35:09;9.60;71.80
68922;DHT22;55959;51.244;5.724;2023-11-22T00:37:34;9.60;71.80
68922;DHT22;55959;51.244;5.724;2023-11-22T00:40:01;9.60;71.70
68922;DHT22;55959;51.244;5.724;2023-11-22T00:42:38;9.50;71.70
68922;DHT22;55959;51.244;5.724;2023-11-22T00:45:07;9.50;71.60
68922;DHT22;55959;51.244;5.724;2023-11-22T00:47:35;9.40;71.60
68922;DHT22;55959;51.244;5.724;2023-11-22T00:50:02;9.40;72.50
68922;DHT22;55959;51.244;5.724;2023-11-22T00:52:32;9.40;71.60
68922;DHT22;55959;51.244;5.724;2023-11-22T00:54:58;9.40;71.60
68922;DHT22;55959;51.244;5.724;2023-11-22T00:57:24;9.30;71.60
68922;DHT22;55959;51.244;5.724;2023-11-22T00:59:52;9.40;71.60
68922;DHT22;55959;51.244;5.724;2023-11-22T01:02:19;9.30;71.60
68922;DHT22;55959;51.244;5.724;2023-11-22T01:04:46;9.30;71.50
68922;DHT22;55959;51.244;5.724;2023-11-22T01:07:11;9.30;71.60
68922;DHT22;55959;51.244;5.724;2023-11-22T01:09:37;9.20;71.50
68922;DHT22;55959;51.244;5.724;2023-11-22T01:12:03;9.20;71.50
68922;DHT22;55959;51.244;5.724;2023-11-22T01:14:29;9.10;71.50
68922;DHT22;55959;51.244;5.724;2023-11-22T01:16:55;9.10;71.50
68922;DHT22;55959;51.244;5.724;2023-11-22T01:19:21;9.10;71.60
68922;DHT22;55959;51.244;5.724;2023-11-22T01:21:48;9.10;71.60
68922;DHT22;55959;51.244;5.724;2023-11-22T01:24:14;9.10;71.70
68922;DHT22;55959;51.244;5.724;2023-11-22T01:26:39;9.00;71.80
68922;DHT22;55959;51.244;5.724;2023-11-22T01:29:05;9.00;71.90
68922;DHT22;55959;51.244;5.724;2023-11-22T01:31:31;9.00;72.00
68922;DHT22;55959;51.244;5.724;2023-11-22T01:33:58;9.00;73.00
68922;DHT22;55959;51.244;5.724;2023-11-22T01:36:24;9.00;72.20
68922;DHT22;55959;51.244;5.724;2023-11-22T01:38:51;9.00;72.30
68922;DHT22;55959;51.244;5.724;2023-11-22T01:41:17;8.90;72.40
68922;DHT22;55959;51.244;5.724;2023-11-22T01:43:43;8.90;72.50
68922;DHT22;55959;51.244;5.724;2023-11-22T01:46:10;8.90;72.60
68922;DHT22;55959;51.244;5.724;2023-11-22T01:48:48;8.90;72.70
68922;DHT22;55959;51.244;5.724;2023-11-22T01:51:14;8.90;72.80
68922;DHT22;55959;51.244;5.724;2023-11-22T01:53:40;8.90;73.00
68922;DHT22;55959;51.244;5.724;2023-11-22T01:56:06;8.90;73.20
68922;DHT22;55959;51.244;5.724;2023-11-22T01:58:32;8.90;73.40
68922;DHT22;55959;51.244;5.724;2023-11-22T02:00:58;8.80;73.40
68922;DHT22;55959;51.244;5.724;2023-11-22T02:03:24;8.80;73.60
68922;DHT22;55959;51.244;5.724;2023-11-22T02:05:50;8.80;73.70
68922;DHT22;55959;51.244;5.724;2023-11-22T02:08:16;8.80;73.80
68922;DHT22;55959;51.244;5.724;2023-11-22T02:10:44;8.80;74.00
68922;DHT22;55959;51.244;5.724;2023-11-22T02:13:10;8.80;74.10
68922;DHT22;55959;51.244;5.724;2023-11-22T02:15:36;8.80;74.20
68922;DHT22;55959;51.244;5.724;2023-11-22T02:18:03;8.80;74.30
68922;DHT22;55959;51.244;5.724;2023-11-22T02:20:30;8.80;75.20
68922;DHT22;55959;51.244;5.724;2023-11-22T02:22:56;8.80;74.40
68922;DHT22;55959;51.244;5.724;2023-11-22T02:25:22;8.80;74.50
68922;DHT22;55959;51.244;5.724;2023-11-22T02:27:48;8.80;75.50
68922;DHT22;55959;51.244;5.724;2023-11-22T02:30:14;8.80;74.80
68922;DHT22;55959;51.244;5.724;2023-11-22T02:32:40;8.80;74.80
68922;DHT22;55959;51.244;5.724;2023-11-22T02:35:06;8.80;74.80
68922;DHT22;55959;51.244;5.724;2023-11-22T02:37:34;8.80;74.80
68922;DHT22;55959;51.244;5.724;2023-11-22T02:40:17;8.80;74.70
68922;DHT22;55959;51.244;5.724;2023-11-22T02:42:48;8.80;74.70
68922;DHT22;55959;51.244;5.724;2023-11-22T02:45:15;8.80;74.70
68922;DHT22;55959;51.244;5.724;2023-11-22T02:47:41;8.80;74.80
68922;DHT22;55959;51.244;5.724;2023-11-22T02:50:09;8.80;75.60
68922;DHT22;55959;51.244;5.724;2023-11-22T02:52:37;8.80;74.80
68922;DHT22;55959;51.244;5.724;2023-11-22T02:55:03;8.80;74.80
68922;DHT22;55959;51.244;5.724;2023-11-22T02:57:30;8.70;74.80
68922;DHT22;55959;51.244;5.724;2023-11-22T02:59:57;8.80;74.90
68922;DHT22;55959;51.244;5.724;2023-11-22T03:02:23;8.80;75.00
68922;DHT22;55959;51.244;5.724;2023-11-22T03:04:52;8.80;75.00
68922;DHT22;55959;51.244;5.724;2023-11-22T03:07:18;8.70;75.00
68922;DHT22;55959;51.244;5.724;2023-11-22T03:09:46;8.80;75.10
68922;DHT22;55959;51.244;5.724;2023-11-22T03:12:12;8.70;75.00
68922;DHT22;55959;51.244;5.724;2023-11-22T03:14:38;8.80;75.10
68922;DHT22;55959;51.244;5.724;2023-11-22T03:17:05;8.70;75.10
68922;DHT22;55959;51.244;5.724;2023-11-22T03:19:31;8.70;75.20
68922;DHT22;55959;51.244;5.724;2023-11-22T03:21:59;8.70;75.20
68922;DHT22;55959;51.244;5.724;2023-11-22T03:24:28;8.70;75.20
68922;DHT22;55959;51.244;5.724;2023-11-22T03:26:55;8.70;75.20
68922;DHT22;55959;51.244;5.724;2023-11-22T03:29:27;8.70;75.20
68922;DHT22;55959;51.244;5.724;2023-11-22T03:31:53;8.70;75.40
68922;DHT22;55959;51.244;5.724;2023-11-22T03:34:19;8.70;75.40
68922;DHT22;55959;51.244;5.724;2023-11-22T03:36:45;8.70;75.40
68922;DHT22;55959;51.244;5.724;2023-11-22T03:39:11;8.70;75.60
68922;DHT22;55959;51.244;5.724;2023-11-22T03:41:37;8.70;75.50
68922;DHT22;55959;51.244;5.724;2023-11-22T03:44:06;8.70;75.60
68922;DHT22;55959;51.244;5.724;2023-11-22T03:46:38;8.70;75.60
68922;DHT22;55959;51.244;5.724;2023-11-22T03:49:05;8.70;75.70
68922;DHT22;55959;51.244;5.724;2023-11-22T03:51:32;8.70;75.80
68922;DHT22;55959;51.244;5.724;2023-11-22T03:53:58;8.70;75.80
68922;DHT22;55959;51.244;5.724;2023-11-22T03:56:24;8.70;75.80
68922;DHT22;55959;51.244;5.724;2023-11-22T03:58:50;8.70;75.80
68922;DHT22;55959;51.244;5.724;2023-11-22T04:01:16;8.70;75.80
68922;DHT22;55959;51.244;5.724;2023-11-22T04:03:42;8.70;75.80
68922;DHT22;55959;51.244;5.724;2023-11-22T04:06:08;8.70;75.80
68922;DHT22;55959;51.244;5.724;2023-11-22T04:08:33;8.70;76.70
68922;DHT22;55959;51.244;5.724;2023-11-22T04:10:59;8.70;75.80
68922;DHT22;55959;51.244;5.724;2023-11-22T04:13:25;8.70;75.90
68922;DHT22;55959;51.244;5.724;2023-11-22T04:15:51;8.70;75.90
68922;DHT22;55959;51.244;5.724;2023-11-22T04:18:17;8.70;75.90
68922;DHT22;55959;51.244;5.724;2023-11-22T04:20:42;8.70;75.80
68922;DHT22;55959;51.244;5.724;2023-11-22T04:23:08;8.70;75.90
68922;DHT22;55959;51.244;5.724;2023-11-22T04:25:37;8.70;75.90
68922;DHT22;55959;51.244;5.724;2023-11-22T04:28:03;8.70;75.90
68922;DHT22;55959;51.244;5.724;2023-11-22T04:30:29;8.70;76.00
68922;DHT22;55959;51.244;5.724;2023-11-22T04:32:54;8.70;76.00
68922;DHT22;55959;51.244;5.724;2023-11-22T04:35:20;8.70;76.80
68922;DHT22;55959;51.244;5.724;2023-11-22T04:37:46;8.70;76.00
68922;DHT22;55959;51.244;5.724;2023-11-22T04:40:12;8.70;76.00
68922;DHT22;55959;51.244;5.724;2023-11-22T04:42:40;8.70;76.00
68922;DHT22;55959;51.244;5.724;2023-11-22T04:45:06;8.70;76.00
68922;DHT22;55959;51.244;5.724;2023-11-22T04:47:32;8.70;76.00
68922;DHT22;55959;51.244;5.724;2023-11-22T04:49:58;8.70;76.00
68922;DHT22;55959;51.244;5.724;2023-11-22T04:52:24;8.70;75.90
68922;DHT22;55959;51.244;5.724;2023-11-22T04:54:50;8.70;76.00
68922;DHT22;55959;51.244;5.724;2023-11-22T04:57:16;8.70;76.00
68922;DHT22;55959;51.244;5.724;2023-11-22T04:59:42;8.70;76.10
68922;DHT22;55959;51.244;5.724;2023-11-22T05:02:08;8.70;76.20
68922;DHT22;55959;51.244;5.724;2023-11-22T05:04:34;8.70;76.20
68922;DHT22;55959;51.244;5.724;2023-11-22T05:06:59;8.70;76.20
68922;DHT22;55959;51.244;5.724;2023-11-22T05:09:25;8.70;76.20
68922;DHT22;55959;51.244;5.724;2023-11-22T05:11:51;8.70;76.20
68922;DHT22;55959;51.244;5.724;2023-11-22T05:14:19;8.70;76.20
68922;DHT22;55959;51.244;5.724;2023-11-22T05:16:45;8.70;76.20
68922;DHT22;55959;51.244;5.724;2023-11-22T05:19:11;8.70;76.20
68922;DHT22;55959;51.244;5.724;2023-11-22T05:21:36;8.70;76.20
68922;DHT22;55959;51.244;5.724;2023-11-22T05:24:02;8.70;76.20
68922;DHT22;55959;51.244;5.724;2023-11-22T05:26:28;8.70;76.20
68922;DHT22;55959;51.244;5.724;2023-11-22T05:28:54;8.70;76.20
68922;DHT22;55959;51.244;5.724;2023-11-22T05:31:21;8.70;76.20
68922;DHT22;55959;51.244;5.724;2023-11-22T05:33:46;8.70;76.20
68922;DHT22;55959;51.244;5.724;2023-11-22T05:36:12;8.70;76.20
68922;DHT22;55959;51.244;5.724;2023-11-22T05:38:39;8.70;76.20
68922;DHT22;55959;51.244;5.724;2023-11-22T05:41:05;8.70;76.20
68922;DHT22;55959;51.244;5.724;2023-11-22T05:43:31;8.70;76.20
68922;DHT22;55959;51.244;5.724;2023-11-22T05:45:56;8.70;76.30
68922;DHT22;55959;51.244;5.724;2023-11-22T05:48:22;8.70;76.40
68922;DHT22;55959;51.244;5.724;2023-11-22T05:50:48;8.70;76.40
68922;DHT22;55959;51.244;5.724;2023-11-22T05:53:14;8.70;76.40
68922;DHT22;55959;51.244;5.724;2023-11-22T05:55:48;8.70;76.50
68922;DHT22;55959;51.244;5.724;2023-11-22T05:58:14;8.70;76.40
68922;DHT22;55959;51.244;5.724;2023-11-22T06:00:46;8.70;76.50
68922;DHT22;55959;51.244;5.724;2023-11-22T06:03:13;8.70;76.50
68922;DHT22;55959;51.244;5.724;2023-11-22T06:05:42;8.70;76.50
68922;DHT22;55959;51.244;5.724;2023-11-22T06:08:08;8.80;76.60
68922;DHT22;55959;51.244;5.724;2023-11-22T06:10:36;8.70;76.50
68922;DHT22;55959;51.244;5.724;2023-11-22T06:13:03;8.80;76.50
68922;DHT22;55959;51.244;5.724;2023-11-22T06:15:29;8.80;76.60
68922;DHT22;55959;51.244;5.724;2023-11-22T06:17:54;8.80;76.50
68922;DHT22;55959;51.244;5.724;2023-11-22T06:20:20;8.80;76.40
68922;DHT22;55959;51.244;5.724;2023-11-22T06:22:46;8.80;76.50
68922;DHT22;55959;51.244;5.724;2023-11-22T06:25:12;8.80;76.60
68922;DHT22;55959;51.244;5.724;2023-11-22T06:27:38;8.80;76.50
68922;DHT22;55959;51.244;5.724;2023-11-22T06:30:05;8.80;76.40
68922;DHT22;55959;51.244;5.724;2023-11-22T06:32:32;8.80;76.50
68922;DHT22;55959;51.244;5.724;2023-11-22T06:34:59;8.80;76.50
68922;DHT22;55959;51.244;5.724;2023-11-22T06:37:25;8.80;76.40
68922;DHT22;55959;51.244;5.724;2023-11-22T06:39:51;8.80;76.40
68922;DHT22;55959;51.244;5.724;2023-11-22T06:42:17;8.80;76.40
68922;DHT22;55959;51.244;5.724;2023-11-22T06:44:44;8.90;76.60
68922;DHT22;55959;51.244;5.724;2023-11-22T06:47:13;8.80;76.50
68922;DHT22;55959;51.244;5.724;2023-11-22T06:49:39;8.80;76.50
68922;DHT22;55959;51.244;5.724;2023-11-22T06:52:05;8.90;76.60
68922;DHT22;55959;51.244;5.724;2023-11-22T06:54:30;8.90;76.60
68922;DHT22;55959;51.244;5.724;2023-11-22T06:56:56;8.90;76.50
68922;DHT22;55959;51.244;5.724;2023-11-22T06:59:22;8.90;76.50
68922;DHT22;55959;51.244;5.724;2023-11-22T07:01:48;8.90;76.50
68922;DHT22;55959;51.244;5.724;2023-11-22T07:04:14;8.90;76.40
68922;DHT22;55959;51.244;5.724;2023-11-22T07:06:40;8.90;77.30
68922;DHT22;55959;51.244;5.724;2023-11-22T07:09:06;8.90;76.40
68922;DHT22;55959;51.244;5.724;2023-11-22T07:11:35;8.90;76.30
68922;DHT22;55959;51.244;5.724;2023-11-22T07:14:03;8.90;76.30
68922;DHT22;55959;51.244;5.724;2023-11-22T07:16:34;8.90;76.20
68922;DHT22;55959;51.244;5.724;2023-11-22T07:19:01;8.90;76.20
68922;DHT22;55959;51.244;5.724;2023-11-22T07:21:31;8.90;76.10
68922;DHT22;55959;51.244;5.724;2023-11-22T07:23:57;8.90;76.10
68922;DHT22;55959;51.244;5.724;2023-11-22T07:26:24;8.90;76.00
68922;DHT22;55959;51.244;5.724;2023-11-22T07:28:52;8.90;76.00
68922;DHT22;55959;51.244;5.724;2023-11-22T07:31:18;8.90;76.00
68922;DHT22;55959;51.244;5.724;2023-11-22T07:33:45;8.90;76.00
68922;DHT22;55959;51.244;5.724;2023-11-22T07:36:12;8.90;76.00
68922;DHT22;55959;51.244;5.724;2023-11-22T07:38:40;8.90;76.00
68922;DHT22;55959;51.244;5.724;2023-11-22T07:41:08;8.90;76.10
68922;DHT22;55959;51.244;5.724;2023-11-22T07:43:34;8.90;76.10
68922;DHT22;55959;51.244;5.724;2023-11-22T07:46:00;8.90;76.10
68922;DHT22;55959;51.244;5.724;2023-11-22T07:48:26;8.90;76.20
68922;DHT22;55959;51.244;5.724;2023-11-22T07:50:53;8.90;76.20
68922;DHT22;55959;51.244;5.724;2023-11-22T07:53:20;9.00;76.30
68922;DHT22;55959;51.244;5.724;2023-11-22T07:55:45;9.00;76.30
68922;DHT22;55959;51.244;5.724;2023-11-22T07:58:12;9.00;76.30
68922;DHT22;55959;51.244;5.724;2023-11-22T08:00:38;9.00;76.30
68922;DHT22;55959;51.244;5.724;2023-11-22T08:03:03;9.00;76.30
68922;DHT22;55959;51.244;5.724;2023-11-22T08:05:31;9.00;76.40
68922;DHT22;55959;51.244;5.724;2023-11-22T08:08:05;9.00;76.40
68922;DHT22;55959;51.244;5.724;2023-11-22T08:10:36;9.00;76.30
68922;DHT22;55959;51.244;5.724;2023-11-22T08:13:03;9.00;76.40
68922;DHT22;55959;51.244;5.724;2023-11-22T08:15:29;9.00;76.40
68922;DHT22;55959;51.244;5.724;2023-11-22T08:17:57;9.00;76.30
68922;DHT22;55959;51.244;5.724;2023-11-22T08:20:25;9.00;76.30
68922;DHT22;55959;51.244;5.724;2023-11-22T08:22:51;9.00;76.30
68922;DHT22;55959;51.244;5.724;2023-11-22T08:25:17;9.00;76.20
68922;DHT22;55959;51.244;5.724;2023-11-22T08:27:43;9.00;76.20
68922;DHT22;55959;51.244;5.724;2023-11-22T08:30:10;9.10;76.30
68922;DHT22;55959;51.244;5.724;2023-11-22T08:32:44;9.10;76.30
68922;DHT22;55959;51.244;5.724;2023-11-22T08:35:15;9.10;76.40
68922;DHT22;55959;51.244;5.724;2023-11-22T08:37:41;9.10;76.40
68922;DHT22;55959;51.244;5.724;2023-11-22T08:40:08;9.10;76.40
68922;DHT22;55959;51.244;5.724;2023-11-22T08:42:37;9.10;76.40
68922;DHT22;55959;51.244;5.724;2023-11-22T08:45:03;9.10;76.40
68922;DHT22;55959;51.244;5.724;2023-11-22T08:47:29;9.10;76.40
68922;DHT22;55959;51.244;5.724;2023-11-22T08:49:56;9.10;76.40
68922;DHT22;55959;51.244;5.724;2023-11-22T08:52:23;9.10;76.20
68922;DHT22;55959;51.244;5.724;2023-11-22T08:54:49;9.10;76.20
68922;DHT22;55959;51.244;5.724;2023-11-22T08:57:17;9.10;76.20
68922;DHT22;55959;51.244;5.724;2023-11-22T08:59:43;9.20;76.20
68922;DHT22;55959;51.244;5.724;2023-11-22T09:02:09;9.20;76.20
68922;DHT22;55959;51.244;5.724;2023-11-22T09:04:38;9.20;76.30
68922;DHT22;55959;51.244;5.724;2023-11-22T09:07:04;9.20;76.30
68922;DHT22;55959;51.244;5.724;2023-11-22T09:09:31;9.20;76.40
68922;DHT22;55959;51.244;5.724;2023-11-22T09:11:57;9.20;76.30
68922;DHT22;55959;51.244;5.724;2023-11-22T09:14:24;9.20;76.20
68922;DHT22;55959;51.244;5.724;2023-11-22T09:16:50;9.20;76.20
68922;DHT22;55959;51.244;5.724;2023-11-22T09:19:23;9.30;76.20
68922;DHT22;55959;51.244;5.724;2023-11-22T09:21:50;9.30;76.20
68922;DHT22;55959;51.244;5.724;2023-11-22T09:24:16;9.20;76.00
68922;DHT22;55959;51.244;5.724;2023-11-22T09:26:42;9.30;76.00
68922;DHT22;55959;51.244;5.724;2023-11-22T09:29:09;9.30;76.00
68922;DHT22;55959;51.244;5.724;2023-11-22T09:31:39;9.30;76.00
68922;DHT22;55959;51.244;5.724;2023-11-22T09:34:05;9.30;76.00
68922;DHT22;55959;51.244;5.724;2023-11-22T09:36:31;9.30;76.00
68922;DHT22;55959;51.244;5.724;2023-11-22T09:38:59;9.30;76.10
68922;DHT22;55959;51.244;5.724;2023-11-22T09:41:25;9.40;76.20
68922;DHT22;55959;51.244;5.724;2023-11-22T09:43:53;9.40;76.20
68922;DHT22;55959;51.244;5.724;2023-11-22T09:46:20;9.40;76.20
68922;DHT22;55959;51.244;5.724;2023-11-22T09:48:49;9.40;76.00
68922;DHT22;55959;51.244;5.724;2023-11-22T09:51:24;9.40;75.90
68922;DHT22;55959;51.244;5.724;2023-11-22T09:53:59;9.40;75.80
68922;DHT22;55959;51.244;5.724;2023-11-22T09:56:26;9.50;75.90
68922;DHT22;55959;51.244;5.724;2023-11-22T09:58:58;9.40;75.70
68922;DHT22;55959;51.244;5.724;2023-11-22T10:01:26;9.40;76.40
68922;DHT22;55959;51.244;5.724;2023-11-22T10:03:54;9.40;75.50
68922;DHT22;55959;51.244;5.724;2023-11-22T10:06:20;9.50;75.60
68922;DHT22;55959;51.244;5.724;2023-11-22T10:08:46;9.50;75.60
68922;DHT22;55959;51.244;5.724;2023-11-22T10:11:16;9.50;75.60
68922;DHT22;55959;51.244;5.724;2023-11-22T10:13:49;9.50;75.60
68922;DHT22;55959;51.244;5.724;2023-11-22T10:16:17;9.50;75.60
68922;DHT22;55959;51.244;5.724;2023-11-22T10:18:45;9.50;75.60
68922;DHT22;55959;51.244;5.724;2023-11-22T10:21:28;9.50;75.60
68922;DHT22;55959;51.244;5.724;2023-11-22T10:24:03;9.60;75.60
68922;DHT22;55959;51.244;5.724;2023-11-22T10:26:29;9.60;75.60
68922;DHT22;55959;51.244;5.724;2023-11-22T10:28:56;9.60;75.50
68922;DHT22;55959;51.244;5.724;2023-11-22T10:31:23;9.60;75.40
68922;DHT22;55959;51.244;5.724;2023-11-22T10:33:50;9.60;75.30
68922;DHT22;55959;51.244;5.724;2023-11-22T10:36:16;9.70;76.20
68922;DHT22;55959;51.244;5.724;2023-11-22T10:38:49;9.70;75.30
68922;DHT22;55959;51.244;5.724;2023-11-22T10:41:20;9.70;75.30
68922;DHT22;55959;51.244;5.724;2023-11-22T10:43:47;9.70;75.30
68922;DHT22;55959;51.244;5.724;2023-11-22T10:46:15;9.70;75.40
68922;DHT22;55959;51.244;5.724;2023-11-22T10:48:42;9.70;75.40
68922;DHT22;55959;51.244;5.724;2023-11-22T10:51:12;9.80;75.50
68922;DHT22;55959;51.244;5.724;2023-11-22T10:53:45;9.80;75.50
68922;DHT22;55959;51.244;5.724;2023-11-22T10:56:15;9.80;75.60
68922;DHT22;55959;51.244;5.724;2023-11-22T10:58:55;9.80;75.60
68922;DHT22;55959;51.244;5.724;2023-11-22T11:01:24;9.90;75.50
68922;DHT22;55959;51.244;5.724;2023-11-22T11:04:08;9.90;75.30
68922;DHT22;55959;51.244;5.724;2023-11-22T11:06:37;9.90;75.20
68922;DHT22;55959;51.244;5.724;2023-11-22T11:09:04;9.90;75.00
68922;DHT22;55959;51.244;5.724;2023-11-22T11:11:33;9.90;74.80
68922;DHT22;55959;51.244;5.724;2023-11-22T11:14:01;9.90;74.80
68922;DHT22;55959;51.244;5.724;2023-11-22T11:16:29;10.00;74.80
68922;DHT22;55959;51.244;5.724;2023-11-22T11:18:56;10.00;74.70
68922;DHT22;55959;51.244;5.724;2023-11-22T11:21:25;10.00;74.70
68922;DHT22;55959;51.244;5.724;2023-11-22T11:23:52;10.00;74.70
68922;DHT22;55959;51.244;5.724;2023-11-22T11:26:20;10.00;74.80
68922;DHT22;55959;51.244;5.724;2023-11-22T11:28:51;10.00;74.70
68922;DHT22;55959;51.244;5.724;2023-11-22T11:31:20;10.10;74.60
68922;DHT22;55959;51.244;5.724;2023-11-22T11:36:25;10.10;74.60
68922;DHT22;55959;51.244;5.724;2023-11-22T11:38:53;10.10;74.50
68922;DHT22;55959;51.244;5.724;2023-11-22T11:41:25;10.20;74.60
68922;DHT22;55959;51.244;5.724;2023-11-22T11:44:03;10.20;74.60
68922;DHT22;55959;51.244;5.724;2023-11-22T11:46:30;10.20;74.50
68922;DHT22;55959;51.244;5.724;2023-11-22T11:48:56;10.20;74.30
68922;DHT22;55959;51.244;5.724;2023-11-22T11:51:24;10.20;74.10
68922;DHT22;55959;51.244;5.724;2023-11-22T11:53:51;10.30;74.10
68922;DHT22;55959;51.244;5.724;2023-11-22T11:56:18;10.30;73.90
68922;DHT22;55959;51.244;5.724;2023-11-22T11:58:44;10.30;73.90
68922;DHT22;55959;51.244;5.724;2023-11-22T12:01:15;10.30;74.00
68922;DHT22;55959;51.244;5.724;2023-11-22T12:03:42;10.30;74.10
68922;DHT22;55959;51.244;5.724;2023-11-22T12:06:14;10.40;74.10
68922;DHT22;55959;51.244;5.724;2023-11-22T12:08:41;10.40;74.10
68922;DHT22;55959;51.244;5.724;2023-11-22T12:11:07;10.40;74.10
68922;DHT22;55959;51.244;5.724;2023-11-22T12:13:34;10.40;74.20
68922;DHT22;55959;51.244;5.724;2023-11-22T12:16:01;10.50;74.20
68922;DHT22;55959;51.244;5.724;2023-11-22T12:18:48;10.50;74.10
68922;DHT22;55959;51.244;5.724;2023-11-22T12:21:18;10.50;74.60
68922;DHT22;55959;51.244;5.724;2023-11-22T12:23:45;10.50;73.50
68922;DHT22;55959;51.244;5.724;2023-11-22T12:26:13;10.50;73.30
68922;DHT22;55959;51.244;5.724;2023-11-22T12:28:41;10.50;73.30
68922;DHT22;55959;51.244;5.724;2023-11-22T12:31:12;10.50;73.20
68922;DHT22;55959;51.244;5.724;2023-11-22T12:33:43;10.60;73.10
68922;DHT22;55959;51.244;5.724;2023-11-22T12:36:10;10.60;72.60
68922;DHT22;55959;51.244;5.724;2023-11-22T12:38:41;10.50;72.20
68922;DHT22;55959;51.244;5.724;2023-11-22T12:41:07;10.50;72.10
68922;DHT22;55959;51.244;5.724;2023-11-22T12:43:34;10.50;71.90
68922;DHT22;55959;51.244;5.724;2023-11-22T12:46:03;10.50;71.90
68922;DHT22;55959;51.244;5.724;2023-11-22T12:48:32;10.50;71.90
68922;DHT22;55959;51.244;5.724;2023-11-22T12:50:58;10.50;72.10
68922;DHT22;55959;51.244;5.724;2023-11-22T12:53:25;10.50;72.10
68922;DHT22;55959;51.244;5.724;2023-11-22T12:55:54;10.60;72.20
68922;DHT22;55959;51.244;5.724;2023-11-22T12:58:25;10.60;72.10
68922;DHT22;55959;51.244;5.724;2023-11-22T13:00:55;10.60;72.00
68922;DHT22;55959;51.244;5.724;2023-11-22T13:03:26;10.60;71.90
68922;DHT22;55959;51.244;5.724;2023-11-22T13:05:52;10.60;72.00
68922;DHT22;55959;51.244;5.724;2023-11-22T13:08:19;10.70;71.90
68922;DHT22;55959;51.244;5.724;2023-11-22T13:10:48;10.70;71.90
68922;DHT22;55959;51.244;5.724;2023-11-22T13:13:24;10.70;71.80
68922;DHT22;55959;51.244;5.724;2023-11-22T13:15:51;10.70;71.70
68922;DHT22;55959;51.244;5.724;2023-11-22T13:18:18;10.70;71.60
68922;DHT22;55959;51.244;5.724;2023-11-22T13:20:44;10.70;71.30
68922;DHT22;55959;51.244;5.724;2023-11-22T13:23:11;10.70;71.20
68922;DHT22;55959;51.244;5.724;2023-11-22T13:25:37;10.70;71.10
68922;DHT22;55959;51.244;5.724;2023-11-22T13:28:03;10.80;71.10
68922;DHT22;55959;51.244;5.724;2023-11-22T13:30:31;10.70;70.90
68922;DHT22;55959;51.244;5.724;2023-11-22T13:32:57;10.80;70.90
68922;DHT22;55959;51.244;5.724;2023-11-22T13:35:27;10.80;70.80
68922;DHT22;55959;51.244;5.724;2023-11-22T13:37:58;10.80;70.70
68922;DHT22;55959;51.244;5.724;2023-11-22T13:40:25;10.80;70.60
68922;DHT22;55959;51.244;5.724;2023-11-22T13:42:54;10.80;70.60
68922;DHT22;55959;51.244;5.724;2023-11-22T13:45:20;10.80;70.80
68922;DHT22;55959;51.244;5.724;2023-11-22T13:47:53;10.80;70.80
68922;DHT22;55959;51.244;5.724;2023-11-22T13:50:26;10.80;70.80
68922;DHT22;55959;51.244;5.724;2023-11-22T13:52:54;10.80;70.70
68922;DHT22;55959;51.244;5.724;2023-11-22T13:55:21;10.90;70.70
68922;DHT22;55959;51.244;5.724;2023-11-22T13:57:58;10.90;70.50
68922;DHT22;55959;51.244;5.724;2023-11-22T14:00:29;10.90;70.30
68922;DHT22;55959;51.244;5.724;2023-11-22T14:03:02;10.90;70.30
68922;DHT22;55959;51.244;5.724;2023-11-22T14:05:33;10.80;70.30
68922;DHT22;55959;51.244;5.724;2023-11-22T14:08:02;10.80;70.40
68922;DHT22;55959;51.244;5.724;2023-11-22T14:10:27;10.90;70.50
68922;DHT22;55959;51.244;5.724;2023-11-22T14:12:54;10.90;70.50
68922;DHT22;55959;51.244;5.724;2023-11-22T14:15:19;10.90;70.50
68922;DHT22;55959;51.244;5.724;2023-11-22T14:17:45;10.90;70.30
68922;DHT22;55959;51.244;5.724;2023-11-22T14:20:15;10.90;70.10
68922;DHT22;55959;51.244;5.724;2023-11-22T14:22:41;10.90;70.00
68922;DHT22;55959;51.244;5.724;2023-11-22T14:25:09;10.90;69.90
68922;DHT22;55959;51.244;5.724;2023-11-22T14:27:40;10.90;69.70
68922;DHT22;55959;51.244;5.724;2023-11-22T14:30:10;10.90;69.70
68922;DHT22;55959;51.244;5.724;2023-11-22T14:32:39;10.90;69.50
68922;DHT22;55959;51.244;5.724;2023-11-22T14:35:06;10.90;69.50
68922;DHT22;55959;51.244;5.724;2023-11-22T14:37:39;10.90;69.50
68922;DHT22;55959;51.244;5.724;2023-11-22T14:40:06;10.90;69.60
68922;DHT22;55959;51.244;5.724;2023-11-22T14:42:41;10.90;69.50
68922;DHT22;55959;51.244;5.724;2023-11-22T14:45:08;10.90;69.40
68922;DHT22;55959;51.244;5.724;2023-11-22T14:47:34;10.90;70.10
68922;DHT22;55959;51.244;5.724;2023-11-22T14:50:02;10.90;69.30
68922;DHT22;55959;51.244;5.724;2023-11-22T14:52:31;10.90;70.00
68922;DHT22;55959;51.244;5.724;2023-11-22T14:54:57;10.90;69.00
68922;DHT22;55959;51.244;5.724;2023-11-22T14:57:25;10.90;68.90
68922;DHT22;55959;51.244;5.724;2023-11-22T14:59:51;10.90;68.70
68922;DHT22;55959;51.244;5.724;2023-11-22T15:02:17;10.80;68.60
68922;DHT22;55959;51.244;5.724;2023-11-22T15:04:44;10.80;68.50
68922;DHT22;55959;51.244;5.724;2023-11-22T15:07:11;10.80;68.70
68922;DHT22;55959;51.244;5.724;2023-11-22T15:09:37;10.80;68.70
68922;DHT22;55959;51.244;5.724;2023-11-22T15:12:03;10.80;68.70
68922;DHT22;55959;51.244;5.724;2023-11-22T15:14:33;10.80;68.80
68922;DHT22;55959;51.244;5.724;2023-11-22T15:17:00;10.80;68.90
68922;DHT22;55959;51.244;5.724;2023-11-22T15:19:30;10.80;68.90
68922;DHT22;55959;51.244;5.724;2023-11-22T15:21:56;10.80;68.90
68922;DHT22;55959;51.244;5.724;2023-11-22T15:24:22;10.70;68.80
68922;DHT22;55959;51.244;5.724;2023-11-22T15:26:48;10.80;68.90
68922;DHT22;55959;51.244;5.724;2023-11-22T15:29:14;10.80;68.70
68922;DHT22;55959;51.244;5.724;2023-11-22T15:31:42;10.70;68.80
68922;DHT22;55959;51.244;5.724;2023-11-22T15:34:08;10.70;68.90
68922;DHT22;55959;51.244;5.724;2023-11-22T15:36:35;10.70;68.90
68922;DHT22;55959;51.244;5.724;2023-11-22T15:39:01;10.70;68.90
68922;DHT22;55959;51.244;5.724;2023-11-22T15:41:27;10.70;68.90
68922;DHT22;55959;51.244;5.724;2023-11-22T15:43:53;10.70;68.90
68922;DHT22;55959;51.244;5.724;2023-11-22T15:46:19;10.70;69.00